sensor_id;sensor_type;location;lat;lon;timestamp;P1;durP1;ratioP1;P2;durP2;ratioP2
50803;SDS011;37205;51.434;6.756;2022-09-09T00:03:40;3.72;;;1.50;;
50803;SDS011;37205;51.434;6.756;2022-09-09T00:08:59;5.18;;;1.60;;
50803;SDS011;37205;51.434;6.756;2022-09-09T00:11:46;3.50;;;1.40;;
50803;SDS011;37205;51.434;6.756;2022-09-09T00:14:18;3.38;;;1.10;;
50803;SDS011;37205;51.434;6.756;2022-09-09T00:16:53;2.22;;;1.02;;
50803;SDS011;37205;51.434;6.756;2022-09-09T00:19:27;3.45;;;1.10;;
50803;SDS011;37205;51.434;6.756;2022-09-09T00:24:44;3.55;;;0.90;;
50803;SDS011;37205;51.434;6.756;2022-09-09T00:27:14;4.82;;;1.20;;
50803;SDS011;37205;51.434;6.756;2022-09-09T00:29:56;3.40;;;1.10;;
50803;SDS011;37205;51.434;6.756;2022-09-09T00:32:30;3.28;;;1.00;;
50803;SDS011;37205;51.434;6.756;2022-09-09T00:35:01;2.30;;;1.00;;
50803;SDS011;37205;51.434;6.756;2022-09-09T00:37:48;5.63;;;1.40;;
50803;SDS011;37205;51.434;6.756;2022-09-09T00:40:29;6.88;;;1.40;;
50803;SDS011;37205;51.434;6.756;2022-09-09T00:48:19;2.97;;;1.20;;
50803;SDS011;37205;51.434;6.756;2022-09-09T00:50:50;3.45;;;1.27;;
50803;SDS011;37205;51.434;6.756;2022-09-09T00:58:34;4.38;;;1.48;;
50803;SDS011;37205;51.434;6.756;2022-09-09T01:01:03;4.10;;;1.40;;
50803;SDS011;37205;51.434;6.756;2022-09-09T01:03:49;5.20;;;1.25;;
50803;SDS011;37205;51.434;6.756;2022-09-09T01:06:29;5.50;;;1.50;;
50803;SDS011;37205;51.434;6.756;2022-09-09T01:14:32;3.72;;;1.65;;
50803;SDS011;37205;51.434;6.756;2022-09-09T01:17:01;5.68;;;1.60;;
50803;SDS011;37205;51.434;6.756;2022-09-09T01:19:44;4.00;;;1.50;;
50803;SDS011;37205;51.434;6.756;2022-09-09T01:27:55;4.53;;;2.05;;
50803;SDS011;37205;51.434;6.756;2022-09-09T01:30:27;5.78;;;2.10;;
50803;SDS011;37205;51.434;6.756;2022-09-09T01:32:54;3.78;;;1.55;;
50803;SDS011;37205;51.434;6.756;2022-09-09T01:38:10;3.72;;;1.80;;
50803;SDS011;37205;51.434;6.756;2022-09-09T01:40:36;5.85;;;1.90;;
50803;SDS011;37205;51.434;6.756;2022-09-09T01:43:02;3.55;;;1.67;;
50803;SDS011;37205;51.434;6.756;2022-09-09T01:45:28;4.50;;;1.65;;
50803;SDS011;37205;51.434;6.756;2022-09-09T01:47:54;5.68;;;1.83;;
50803;SDS011;37205;51.434;6.756;2022-09-09T01:50:21;7.53;;;2.33;;
50803;SDS011;37205;51.434;6.756;2022-09-09T01:52:52;3.42;;;1.63;;
50803;SDS011;37205;51.434;6.756;2022-09-09T01:55:24;5.85;;;1.85;;
50803;SDS011;37205;51.434;6.756;2022-09-09T02:01:13;7.10;;;2.05;;
50803;SDS011;37205;51.434;6.756;2022-09-09T02:03:49;2.97;;;1.67;;
50803;SDS011;37205;51.434;6.756;2022-09-09T02:08:50;5.15;;;2.08;;
50803;SDS011;37205;51.434;6.756;2022-09-09T02:11:25;3.28;;;1.67;;
50803;SDS011;37205;51.434;6.756;2022-09-09T02:13:57;3.55;;;1.60;;
50803;SDS011;37205;51.434;6.756;2022-09-09T02:16:38;4.45;;;1.80;;
50803;SDS011;37205;51.434;6.756;2022-09-09T02:19:17;4.43;;;1.95;;
50803;SDS011;37205;51.434;6.756;2022-09-09T02:21:51;4.43;;;1.77;;
50803;SDS011;37205;51.434;6.756;2022-09-09T02:24:19;3.10;;;1.67;;
50803;SDS011;37205;51.434;6.756;2022-09-09T02:26:47;3.30;;;1.70;;
50803;SDS011;37205;51.434;6.756;2022-09-09T02:29:20;4.60;;;1.65;;
50803;SDS011;37205;51.434;6.756;2022-09-09T02:31:49;3.63;;;1.80;;
50803;SDS011;37205;51.434;6.756;2022-09-09T02:34:20;4.63;;;1.88;;
50803;SDS011;37205;51.434;6.756;2022-09-09T02:36:49;3.38;;;1.75;;
50803;SDS011;37205;51.434;6.756;2022-09-09T02:39:17;5.45;;;1.77;;
50803;SDS011;37205;51.434;6.756;2022-09-09T02:41:43;4.55;;;1.85;;
50803;SDS011;37205;51.434;6.756;2022-09-09T02:44:11;3.55;;;1.60;;
50803;SDS011;37205;51.434;6.756;2022-09-09T02:52:21;6.93;;;1.67;;
50803;SDS011;37205;51.434;6.756;2022-09-09T02:54:57;6.75;;;1.52;;
50803;SDS011;37205;51.434;6.756;2022-09-09T02:57:29;5.57;;;1.95;;
50803;SDS011;37205;51.434;6.756;2022-09-09T02:59:57;3.95;;;1.50;;
50803;SDS011;37205;51.434;6.756;2022-09-09T03:02:23;4.05;;;1.95;;
50803;SDS011;37205;51.434;6.756;2022-09-09T03:04:50;3.75;;;1.75;;
50803;SDS011;37205;51.434;6.756;2022-09-09T03:07:17;5.10;;;1.70;;
50803;SDS011;37205;51.434;6.756;2022-09-09T03:09:43;3.75;;;1.70;;
50803;SDS011;37205;51.434;6.756;2022-09-09T03:12:10;5.43;;;1.60;;
50803;SDS011;37205;51.434;6.756;2022-09-09T03:14:36;4.75;;;1.60;;
50803;SDS011;37205;51.434;6.756;2022-09-09T03:17:03;6.35;;;1.80;;
50803;SDS011;37205;51.434;6.756;2022-09-09T03:19:29;4.82;;;1.45;;
50803;SDS011;37205;51.434;6.756;2022-09-09T03:21:55;5.22;;;1.60;;
50803;SDS011;37205;51.434;6.756;2022-09-09T03:24:21;5.00;;;1.80;;
50803;SDS011;37205;51.434;6.756;2022-09-09T03:26:47;3.13;;;1.42;;
50803;SDS011;37205;51.434;6.756;2022-09-09T03:29:13;3.97;;;2.00;;
50803;SDS011;37205;51.434;6.756;2022-09-09T03:31:39;4.53;;;1.50;;
50803;SDS011;37205;51.434;6.756;2022-09-09T03:34:05;4.95;;;1.77;;
50803;SDS011;37205;51.434;6.756;2022-09-09T03:36:31;5.05;;;1.88;;
50803;SDS011;37205;51.434;6.756;2022-09-09T03:38:57;5.13;;;2.05;;
50803;SDS011;37205;51.434;6.756;2022-09-09T03:41:24;5.75;;;2.25;;
50803;SDS011;37205;51.434;6.756;2022-09-09T03:43:51;4.20;;;1.98;;
50803;SDS011;37205;51.434;6.756;2022-09-09T03:46:17;5.43;;;1.88;;
50803;SDS011;37205;51.434;6.756;2022-09-09T03:48:43;5.68;;;2.00;;
50803;SDS011;37205;51.434;6.756;2022-09-09T03:51:09;5.85;;;1.65;;
50803;SDS011;37205;51.434;6.756;2022-09-09T03:53:35;4.88;;;2.17;;
50803;SDS011;37205;51.434;6.756;2022-09-09T03:56:03;5.70;;;2.10;;
50803;SDS011;37205;51.434;6.756;2022-09-09T03:58:31;4.03;;;1.90;;
50803;SDS011;37205;51.434;6.756;2022-09-09T04:01:02;5.40;;;2.10;;
50803;SDS011;37205;51.434;6.756;2022-09-09T04:03:30;4.63;;;2.17;;
50803;SDS011;37205;51.434;6.756;2022-09-09T04:05:56;4.80;;;2.17;;
50803;SDS011;37205;51.434;6.756;2022-09-09T04:08:23;4.63;;;2.15;;
50803;SDS011;37205;51.434;6.756;2022-09-09T04:10:52;6.00;;;2.53;;
50803;SDS011;37205;51.434;6.756;2022-09-09T04:13:22;6.18;;;2.45;;
50803;SDS011;37205;51.434;6.756;2022-09-09T04:15:57;6.78;;;2.25;;
50803;SDS011;37205;51.434;6.756;2022-09-09T04:18:24;7.18;;;3.05;;
50803;SDS011;37205;51.434;6.756;2022-09-09T04:20:51;5.80;;;2.45;;
50803;SDS011;37205;51.434;6.756;2022-09-09T04:23:18;5.65;;;2.28;;
50803;SDS011;37205;51.434;6.756;2022-09-09T04:25:45;6.53;;;2.00;;
50803;SDS011;37205;51.434;6.756;2022-09-09T04:28:12;6.32;;;2.30;;
50803;SDS011;37205;51.434;6.756;2022-09-09T04:30:41;5.88;;;2.50;;
50803;SDS011;37205;51.434;6.756;2022-09-09T04:33:07;7.10;;;2.42;;
50803;SDS011;37205;51.434;6.756;2022-09-09T04:35:34;7.05;;;2.53;;
50803;SDS011;37205;51.434;6.756;2022-09-09T04:38:00;5.85;;;2.33;;
50803;SDS011;37205;51.434;6.756;2022-09-09T04:40:27;7.32;;;2.15;;
50803;SDS011;37205;51.434;6.756;2022-09-09T04:42:54;5.32;;;2.08;;
50803;SDS011;37205;51.434;6.756;2022-09-09T04:45:20;5.65;;;2.45;;
50803;SDS011;37205;51.434;6.756;2022-09-09T04:47:46;5.75;;;2.40;;
50803;SDS011;37205;51.434;6.756;2022-09-09T04:50:12;8.43;;;2.22;;
50803;SDS011;37205;51.434;6.756;2022-09-09T04:52:37;6.43;;;2.00;;
50803;SDS011;37205;51.434;6.756;2022-09-09T04:55:03;5.25;;;2.17;;
50803;SDS011;37205;51.434;6.756;2022-09-09T04:57:29;6.13;;;2.20;;
50803;SDS011;37205;51.434;6.756;2022-09-09T04:59:58;7.63;;;2.50;;
50803;SDS011;37205;51.434;6.756;2022-09-09T05:02:24;6.15;;;2.22;;
50803;SDS011;37205;51.434;6.756;2022-09-09T05:04:51;5.57;;;2.15;;
50803;SDS011;37205;51.434;6.756;2022-09-09T05:07:16;6.55;;;2.47;;
50803;SDS011;37205;51.434;6.756;2022-09-09T05:09:42;5.35;;;2.47;;
50803;SDS011;37205;51.434;6.756;2022-09-09T05:12:08;7.45;;;2.65;;
50803;SDS011;37205;51.434;6.756;2022-09-09T05:14:33;4.82;;;1.92;;
50803;SDS011;37205;51.434;6.756;2022-09-09T05:17:02;5.55;;;2.33;;
50803;SDS011;37205;51.434;6.756;2022-09-09T05:19:28;9.85;;;2.88;;
50803;SDS011;37205;51.434;6.756;2022-09-09T05:21:53;6.22;;;2.58;;
50803;SDS011;37205;51.434;6.756;2022-09-09T05:24:19;10.20;;;2.60;;
50803;SDS011;37205;51.434;6.756;2022-09-09T05:26:45;7.88;;;2.47;;
50803;SDS011;37205;51.434;6.756;2022-09-09T05:29:10;7.65;;;2.55;;
50803;SDS011;37205;51.434;6.756;2022-09-09T05:31:36;10.23;;;2.75;;
50803;SDS011;37205;51.434;6.756;2022-09-09T05:34:01;7.10;;;2.72;;
50803;SDS011;37205;51.434;6.756;2022-09-09T05:36:27;7.15;;;2.70;;
50803;SDS011;37205;51.434;6.756;2022-09-09T05:38:52;7.45;;;2.42;;
50803;SDS011;37205;51.434;6.756;2022-09-09T05:41:21;6.07;;;2.42;;
50803;SDS011;37205;51.434;6.756;2022-09-09T05:43:48;11.20;;;2.90;;
50803;SDS011;37205;51.434;6.756;2022-09-09T05:46:15;9.55;;;4.80;;
50803;SDS011;37205;51.434;6.756;2022-09-09T05:48:43;12.63;;;6.53;;
50803;SDS011;37205;51.434;6.756;2022-09-09T05:51:12;8.35;;;2.85;;
50803;SDS011;37205;51.434;6.756;2022-09-09T05:53:42;9.50;;;2.85;;
50803;SDS011;37205;51.434;6.756;2022-09-09T05:56:10;7.78;;;2.70;;
50803;SDS011;37205;51.434;6.756;2022-09-09T05:58:40;10.45;;;2.55;;
50803;SDS011;37205;51.434;6.756;2022-09-09T06:01:12;9.73;;;2.50;;
50803;SDS011;37205;51.434;6.756;2022-09-09T06:03:40;5.72;;;2.65;;
50803;SDS011;37205;51.434;6.756;2022-09-09T06:06:09;8.90;;;2.40;;
50803;SDS011;37205;51.434;6.756;2022-09-09T06:08:37;8.57;;;2.60;;
50803;SDS011;37205;51.434;6.756;2022-09-09T06:11:05;8.75;;;3.05;;
50803;SDS011;37205;51.434;6.756;2022-09-09T06:13:33;7.63;;;2.95;;
50803;SDS011;37205;51.434;6.756;2022-09-09T06:15:59;7.32;;;2.75;;
50803;SDS011;37205;51.434;6.756;2022-09-09T06:18:25;6.60;;;2.55;;
50803;SDS011;37205;51.434;6.756;2022-09-09T06:20:54;10.68;;;2.85;;
50803;SDS011;37205;51.434;6.756;2022-09-09T06:23:20;7.95;;;2.40;;
50803;SDS011;37205;51.434;6.756;2022-09-09T06:25:46;6.63;;;2.22;;
50803;SDS011;37205;51.434;6.756;2022-09-09T06:28:11;7.75;;;2.42;;
50803;SDS011;37205;51.434;6.756;2022-09-09T06:30:38;7.47;;;2.75;;
50803;SDS011;37205;51.434;6.756;2022-09-09T06:33:04;8.48;;;2.75;;
50803;SDS011;37205;51.434;6.756;2022-09-09T06:35:30;12.45;;;5.15;;
50803;SDS011;37205;51.434;6.756;2022-09-09T06:37:56;5.82;;;2.67;;
50803;SDS011;37205;51.434;6.756;2022-09-09T06:40:23;9.20;;;3.13;;
50803;SDS011;37205;51.434;6.756;2022-09-09T06:42:49;5.95;;;1.90;;
50803;SDS011;37205;51.434;6.756;2022-09-09T06:45:15;11.30;;;3.13;;
50803;SDS011;37205;51.434;6.756;2022-09-09T06:47:41;8.27;;;2.17;;
50803;SDS011;37205;51.434;6.756;2022-09-09T06:50:07;8.65;;;2.15;;
50803;SDS011;37205;51.434;6.756;2022-09-09T06:52:35;7.18;;;2.40;;
50803;SDS011;37205;51.434;6.756;2022-09-09T06:55:00;10.18;;;3.40;;
50803;SDS011;37205;51.434;6.756;2022-09-09T06:57:27;9.00;;;4.53;;
50803;SDS011;37205;51.434;6.756;2022-09-09T06:59:53;12.73;;;2.97;;
50803;SDS011;37205;51.434;6.756;2022-09-09T07:02:18;9.27;;;2.25;;
50803;SDS011;37205;51.434;6.756;2022-09-09T07:04:44;11.18;;;2.33;;
50803;SDS011;37205;51.434;6.756;2022-09-09T07:07:09;7.03;;;1.85;;
50803;SDS011;37205;51.434;6.756;2022-09-09T07:09:37;8.07;;;2.08;;
50803;SDS011;37205;51.434;6.756;2022-09-09T07:12:02;10.88;;;2.75;;
50803;SDS011;37205;51.434;6.756;2022-09-09T07:14:30;7.07;;;2.40;;
50803;SDS011;37205;51.434;6.756;2022-09-09T07:16:57;9.85;;;2.63;;
50803;SDS011;37205;51.434;6.756;2022-09-09T07:19:23;5.78;;;2.42;;
50803;SDS011;37205;51.434;6.756;2022-09-09T07:21:48;7.18;;;2.67;;
50803;SDS011;37205;51.434;6.756;2022-09-09T07:24:14;6.22;;;2.33;;
50803;SDS011;37205;51.434;6.756;2022-09-09T07:26:40;4.97;;;2.15;;
50803;SDS011;37205;51.434;6.756;2022-09-09T07:29:06;8.30;;;2.80;;
50803;SDS011;37205;51.434;6.756;2022-09-09T07:31:33;8.85;;;3.20;;
50803;SDS011;37205;51.434;6.756;2022-09-09T07:34:07;7.00;;;2.42;;
50803;SDS011;37205;51.434;6.756;2022-09-09T07:36:34;7.90;;;2.05;;
50803;SDS011;37205;51.434;6.756;2022-09-09T07:39:04;7.95;;;2.22;;
50803;SDS011;37205;51.434;6.756;2022-09-09T07:41:35;6.43;;;2.10;;
50803;SDS011;37205;51.434;6.756;2022-09-09T07:44:07;6.07;;;2.15;;
50803;SDS011;37205;51.434;6.756;2022-09-09T07:46:35;7.65;;;3.00;;
50803;SDS011;37205;51.434;6.756;2022-09-09T07:49:02;8.57;;;2.28;;
50803;SDS011;37205;51.434;6.756;2022-09-09T07:51:29;9.25;;;3.08;;
50803;SDS011;37205;51.434;6.756;2022-09-09T07:53:59;9.50;;;4.22;;
50803;SDS011;37205;51.434;6.756;2022-09-09T07:56:27;6.63;;;2.67;;
50803;SDS011;37205;51.434;6.756;2022-09-09T07:58:55;8.95;;;2.90;;
50803;SDS011;37205;51.434;6.756;2022-09-09T08:03:53;8.05;;;3.35;;
50803;SDS011;37205;51.434;6.756;2022-09-09T08:06:20;9.48;;;3.20;;
50803;SDS011;37205;51.434;6.756;2022-09-09T08:08:49;10.45;;;2.53;;
50803;SDS011;37205;51.434;6.756;2022-09-09T08:11:16;7.85;;;2.45;;
50803;SDS011;37205;51.434;6.756;2022-09-09T08:13:42;9.52;;;2.38;;
50803;SDS011;37205;51.434;6.756;2022-09-09T08:16:12;9.88;;;2.83;;
50803;SDS011;37205;51.434;6.756;2022-09-09T08:18:39;7.32;;;2.75;;
50803;SDS011;37205;51.434;6.756;2022-09-09T08:21:10;7.32;;;3.10;;
50803;SDS011;37205;51.434;6.756;2022-09-09T08:23:38;5.90;;;2.42;;
50803;SDS011;37205;51.434;6.756;2022-09-09T08:26:16;6.25;;;2.35;;
50803;SDS011;37205;51.434;6.756;2022-09-09T08:28:50;6.88;;;1.90;;
50803;SDS011;37205;51.434;6.756;2022-09-09T08:33:45;5.80;;;1.98;;
50803;SDS011;37205;51.434;6.756;2022-09-09T08:36:12;8.40;;;2.40;;
50803;SDS011;37205;51.434;6.756;2022-09-09T08:38:42;5.97;;;1.50;;
50803;SDS011;37205;51.434;6.756;2022-09-09T08:43:58;4.68;;;1.65;;
50803;SDS011;37205;51.434;6.756;2022-09-09T08:46:54;7.80;;;1.85;;
50803;SDS011;37205;51.434;6.756;2022-09-09T08:52:31;9.88;;;2.42;;
50803;SDS011;37205;51.434;6.756;2022-09-09T08:58:09;4.50;;;1.50;;
50803;SDS011;37205;51.434;6.756;2022-09-09T09:03:44;7.78;;;1.88;;
50803;SDS011;37205;51.434;6.756;2022-09-09T09:09:21;5.57;;;1.70;;
50803;SDS011;37205;51.434;6.756;2022-09-09T09:12:08;5.60;;;1.98;;
50803;SDS011;37205;51.434;6.756;2022-09-09T09:17:13;8.38;;;2.22;;
50803;SDS011;37205;51.434;6.756;2022-09-09T09:19:48;10.43;;;3.17;;
50803;SDS011;37205;51.434;6.756;2022-09-09T09:22:21;9.25;;;3.53;;
50803;SDS011;37205;51.434;6.756;2022-09-09T09:27:49;7.50;;;3.25;;
50803;SDS011;37205;51.434;6.756;2022-09-09T09:30:38;6.75;;;2.60;;
50803;SDS011;37205;51.434;6.756;2022-09-09T09:33:26;5.18;;;2.08;;
50803;SDS011;37205;51.434;6.756;2022-09-09T09:35:59;11.43;;;2.67;;
50803;SDS011;37205;51.434;6.756;2022-09-09T09:38:26;5.72;;;1.70;;
50803;SDS011;37205;51.434;6.756;2022-09-09T09:40:54;10.88;;;2.25;;
50803;SDS011;37205;51.434;6.756;2022-09-09T09:43:29;7.20;;;2.00;;
50803;SDS011;37205;51.434;6.756;2022-09-09T09:45:59;7.07;;;1.83;;
50803;SDS011;37205;51.434;6.756;2022-09-09T09:48:26;7.68;;;2.40;;
50803;SDS011;37205;51.434;6.756;2022-09-09T09:51:12;7.03;;;2.00;;
50803;SDS011;37205;51.434;6.756;2022-09-09T09:53:41;6.55;;;1.98;;
50803;SDS011;37205;51.434;6.756;2022-09-09T09:56:16;8.93;;;2.25;;
50803;SDS011;37205;51.434;6.756;2022-09-09T09:58:51;5.68;;;2.15;;
50803;SDS011;37205;51.434;6.756;2022-09-09T10:03:54;31.67;;;22.15;;
50803;SDS011;37205;51.434;6.756;2022-09-09T10:06:30;38.67;;;22.67;;
50803;SDS011;37205;51.434;6.756;2022-09-09T10:09:00;21.17;;;11.75;;
50803;SDS011;37205;51.434;6.756;2022-09-09T10:11:38;21.02;;;11.18;;
50803;SDS011;37205;51.434;6.756;2022-09-09T10:14:20;9.48;;;4.65;;
50803;SDS011;37205;51.434;6.756;2022-09-09T10:17:00;5.40;;;2.30;;
50803;SDS011;37205;51.434;6.756;2022-09-09T10:22:18;5.15;;;2.30;;
50803;SDS011;37205;51.434;6.756;2022-09-09T10:24:55;4.75;;;1.52;;
50803;SDS011;37205;51.434;6.756;2022-09-09T10:27:48;8.77;;;2.15;;
50803;SDS011;37205;51.434;6.756;2022-09-09T10:33:16;7.18;;;2.08;;
50803;SDS011;37205;51.434;6.756;2022-09-09T10:38:46;7.18;;;1.50;;
50803;SDS011;37205;51.434;6.756;2022-09-09T10:44:12;5.20;;;1.90;;
50803;SDS011;37205;51.434;6.756;2022-09-09T10:54:56;5.20;;;2.22;;
50803;SDS011;37205;51.434;6.756;2022-09-09T10:57:39;5.13;;;1.95;;
50803;SDS011;37205;51.434;6.756;2022-09-09T11:00:17;5.07;;;2.40;;
50803;SDS011;37205;51.434;6.756;2022-09-09T11:02:45;7.35;;;2.38;;
50803;SDS011;37205;51.434;6.756;2022-09-09T11:11:29;5.05;;;1.38;;
50803;SDS011;37205;51.434;6.756;2022-09-09T11:14:26;5.75;;;1.83;;
50803;SDS011;37205;51.434;6.756;2022-09-09T11:16:57;5.35;;;1.90;;
50803;SDS011;37205;51.434;6.756;2022-09-09T11:19:38;4.05;;;1.55;;
50803;SDS011;37205;51.434;6.756;2022-09-09T11:22:07;5.15;;;1.50;;
50803;SDS011;37205;51.434;6.756;2022-09-09T11:24:47;6.18;;;1.75;;
50803;SDS011;37205;51.434;6.756;2022-09-09T11:27:25;5.93;;;1.70;;
50803;SDS011;37205;51.434;6.756;2022-09-09T11:35:43;7.50;;;2.03;;
50803;SDS011;37205;51.434;6.756;2022-09-09T11:38:46;3.58;;;1.45;;
50803;SDS011;37205;51.434;6.756;2022-09-09T11:41:16;5.18;;;1.40;;
50803;SDS011;37205;51.434;6.756;2022-09-09T11:43:46;5.43;;;1.80;;
50803;SDS011;37205;51.434;6.756;2022-09-09T11:46:17;3.63;;;1.10;;
50803;SDS011;37205;51.434;6.756;2022-09-09T11:48:56;3.85;;;1.30;;
50803;SDS011;37205;51.434;6.756;2022-09-09T11:51:26;4.55;;;1.70;;
50803;SDS011;37205;51.434;6.756;2022-09-09T11:59:01;4.88;;;1.73;;
50803;SDS011;37205;51.434;6.756;2022-09-09T12:01:33;3.13;;;1.25;;
50803;SDS011;37205;51.434;6.756;2022-09-09T12:07:00;4.07;;;1.40;;
50803;SDS011;37205;51.434;6.756;2022-09-09T12:09:57;5.05;;;1.52;;
50803;SDS011;37205;51.434;6.756;2022-09-09T12:12:44;6.10;;;1.67;;
50803;SDS011;37205;51.434;6.756;2022-09-09T12:17:53;4.07;;;1.77;;
50803;SDS011;37205;51.434;6.756;2022-09-09T12:20:30;4.72;;;1.70;;
50803;SDS011;37205;51.434;6.756;2022-09-09T12:28:37;3.38;;;0.90;;
50803;SDS011;37205;51.434;6.756;2022-09-09T12:31:33;5.85;;;1.42;;
50803;SDS011;37205;51.434;6.756;2022-09-09T12:37:18;7.95;;;1.92;;
50803;SDS011;37205;51.434;6.756;2022-09-09T12:40:02;4.35;;;1.13;;
50803;SDS011;37205;51.434;6.756;2022-09-09T12:42:31;4.53;;;2.28;;
50803;SDS011;37205;51.434;6.756;2022-09-09T12:45:01;4.28;;;1.50;;
50803;SDS011;37205;51.434;6.756;2022-09-09T12:47:43;4.22;;;1.30;;
50803;SDS011;37205;51.434;6.756;2022-09-09T12:50:17;6.38;;;1.27;;
50803;SDS011;37205;51.434;6.756;2022-09-09T12:52:46;3.67;;;1.20;;
50803;SDS011;37205;51.434;6.756;2022-09-09T12:55:20;2.95;;;1.20;;
50803;SDS011;37205;51.434;6.756;2022-09-09T12:57:50;3.47;;;1.27;;
50803;SDS011;37205;51.434;6.756;2022-09-09T13:02:49;4.70;;;1.38;;
50803;SDS011;37205;51.434;6.756;2022-09-09T13:05:34;6.22;;;1.55;;
50803;SDS011;37205;51.434;6.756;2022-09-09T13:08:10;4.00;;;1.35;;
50803;SDS011;37205;51.434;6.756;2022-09-09T13:10:39;7.18;;;1.45;;
50803;SDS011;37205;51.434;6.756;2022-09-09T13:13:15;7.68;;;1.70;;
50803;SDS011;37205;51.434;6.756;2022-09-09T13:15:54;4.88;;;1.70;;
50803;SDS011;37205;51.434;6.756;2022-09-09T13:18:22;9.27;;;1.75;;
50803;SDS011;37205;51.434;6.756;2022-09-09T13:20:51;6.22;;;1.70;;
50803;SDS011;37205;51.434;6.756;2022-09-09T13:23:18;3.90;;;1.52;;
50803;SDS011;37205;51.434;6.756;2022-09-09T13:25:58;5.93;;;1.65;;
50803;SDS011;37205;51.434;6.756;2022-09-09T13:28:27;3.42;;;1.40;;
50803;SDS011;37205;51.434;6.756;2022-09-09T13:30:58;4.47;;;1.40;;
50803;SDS011;37205;51.434;6.756;2022-09-09T13:33:31;5.25;;;1.60;;
50803;SDS011;37205;51.434;6.756;2022-09-09T13:38:28;5.35;;;1.60;;
50803;SDS011;37205;51.434;6.756;2022-09-09T13:40:56;5.68;;;1.70;;
50803;SDS011;37205;51.434;6.756;2022-09-09T13:43:24;3.17;;;1.48;;
50803;SDS011;37205;51.434;6.756;2022-09-09T13:45:52;4.75;;;1.52;;
50803;SDS011;37205;51.434;6.756;2022-09-09T13:48:19;4.13;;;1.80;;
50803;SDS011;37205;51.434;6.756;2022-09-09T13:50:53;6.10;;;1.77;;
50803;SDS011;37205;51.434;6.756;2022-09-09T13:53:32;4.63;;;1.60;;
50803;SDS011;37205;51.434;6.756;2022-09-09T13:55:58;4.88;;;1.35;;
50803;SDS011;37205;51.434;6.756;2022-09-09T13:58:24;4.90;;;1.33;;
50803;SDS011;37205;51.434;6.756;2022-09-09T14:00:51;2.90;;;1.25;;
50803;SDS011;37205;51.434;6.756;2022-09-09T14:03:18;4.78;;;1.55;;
50803;SDS011;37205;51.434;6.756;2022-09-09T14:05:44;5.07;;;2.03;;
50803;SDS011;37205;51.434;6.756;2022-09-09T14:08:14;5.63;;;1.95;;
50803;SDS011;37205;51.434;6.756;2022-09-09T14:10:46;7.80;;;3.33;;
50803;SDS011;37205;51.434;6.756;2022-09-09T14:13:12;6.57;;;2.75;;
50803;SDS011;37205;51.434;6.756;2022-09-09T14:15:38;6.05;;;1.80;;
50803;SDS011;37205;51.434;6.756;2022-09-09T14:18:03;3.13;;;1.50;;
50803;SDS011;37205;51.434;6.756;2022-09-09T14:20:32;3.95;;;1.30;;
50803;SDS011;37205;51.434;6.756;2022-09-09T14:22:58;4.38;;;1.50;;
50803;SDS011;37205;51.434;6.756;2022-09-09T14:25:23;6.18;;;1.80;;
50803;SDS011;37205;51.434;6.756;2022-09-09T14:27:49;4.30;;;1.55;;
50803;SDS011;37205;51.434;6.756;2022-09-09T14:30:16;4.00;;;1.20;;
50803;SDS011;37205;51.434;6.756;2022-09-09T14:32:42;6.10;;;1.60;;
50803;SDS011;37205;51.434;6.756;2022-09-09T14:35:07;4.07;;;1.17;;
50803;SDS011;37205;51.434;6.756;2022-09-09T14:37:33;6.88;;;1.95;;
50803;SDS011;37205;51.434;6.756;2022-09-09T14:39:59;8.27;;;1.80;;
50803;SDS011;37205;51.434;6.756;2022-09-09T14:42:25;8.05;;;2.40;;
50803;SDS011;37205;51.434;6.756;2022-09-09T14:44:51;7.82;;;2.17;;
50803;SDS011;37205;51.434;6.756;2022-09-09T14:47:17;5.72;;;1.55;;
50803;SDS011;37205;51.434;6.756;2022-09-09T14:49:42;4.35;;;1.88;;
50803;SDS011;37205;51.434;6.756;2022-09-09T14:52:08;4.85;;;1.52;;
50803;SDS011;37205;51.434;6.756;2022-09-09T14:54:34;4.38;;;1.20;;
50803;SDS011;37205;51.434;6.756;2022-09-09T14:56:59;5.05;;;1.02;;
50803;SDS011;37205;51.434;6.756;2022-09-09T14:59:25;3.72;;;1.00;;
50803;SDS011;37205;51.434;6.756;2022-09-09T15:01:51;3.92;;;1.30;;
50803;SDS011;37205;51.434;6.756;2022-09-09T15:04:18;4.32;;;1.15;;
50803;SDS011;37205;51.434;6.756;2022-09-09T15:06:44;4.40;;;1.05;;
50803;SDS011;37205;51.434;6.756;2022-09-09T15:09:13;3.47;;;0.90;;
50803;SDS011;37205;51.434;6.756;2022-09-09T15:11:39;2.97;;;0.90;;
50803;SDS011;37205;51.434;6.756;2022-09-09T15:14:05;5.22;;;1.10;;
50803;SDS011;37205;51.434;6.756;2022-09-09T15:16:32;3.80;;;1.00;;
50803;SDS011;37205;51.434;6.756;2022-09-09T15:18:58;3.55;;;1.20;;
50803;SDS011;37205;51.434;6.756;2022-09-09T15:21:32;2.30;;;0.90;;
50803;SDS011;37205;51.434;6.756;2022-09-09T15:23:59;3.78;;;0.90;;
50803;SDS011;37205;51.434;6.756;2022-09-09T15:26:25;2.50;;;1.00;;
50803;SDS011;37205;51.434;6.756;2022-09-09T15:28:52;3.90;;;0.90;;
50803;SDS011;37205;51.434;6.756;2022-09-09T15:31:18;6.75;;;1.70;;
50803;SDS011;37205;51.434;6.756;2022-09-09T15:33:52;4.97;;;1.50;;
50803;SDS011;37205;51.434;6.756;2022-09-09T15:36:25;8.02;;;2.55;;
50803;SDS011;37205;51.434;6.756;2022-09-09T15:38:57;6.00;;;2.65;;
50803;SDS011;37205;51.434;6.756;2022-09-09T15:41:23;5.55;;;2.85;;
50803;SDS011;37205;51.434;6.756;2022-09-09T15:43:50;4.60;;;2.30;;
50803;SDS011;37205;51.434;6.756;2022-09-09T15:48:43;4.28;;;1.40;;
50803;SDS011;37205;51.434;6.756;2022-09-09T15:51:10;4.72;;;1.48;;
50803;SDS011;37205;51.434;6.756;2022-09-09T15:53:36;3.65;;;1.63;;
50803;SDS011;37205;51.434;6.756;2022-09-09T15:56:04;2.22;;;1.00;;
50803;SDS011;37205;51.434;6.756;2022-09-09T15:58:31;4.80;;;1.30;;
50803;SDS011;37205;51.434;6.756;2022-09-09T16:01:03;3.83;;;1.42;;
50803;SDS011;37205;51.434;6.756;2022-09-09T16:03:36;3.45;;;1.10;;
50803;SDS011;37205;51.434;6.756;2022-09-09T16:06:04;3.70;;;1.17;;
50803;SDS011;37205;51.434;6.756;2022-09-09T16:08:33;3.15;;;1.02;;
50803;SDS011;37205;51.434;6.756;2022-09-09T16:11:08;1.90;;;0.80;;
50803;SDS011;37205;51.434;6.756;2022-09-09T16:13:39;2.22;;;0.90;;
50803;SDS011;37205;51.434;6.756;2022-09-09T16:16:06;1.77;;;0.70;;
50803;SDS011;37205;51.434;6.756;2022-09-09T16:21:01;2.33;;;0.90;;
50803;SDS011;37205;51.434;6.756;2022-09-09T16:23:30;3.70;;;1.27;;
50803;SDS011;37205;51.434;6.756;2022-09-09T16:26:05;4.45;;;1.10;;
50803;SDS011;37205;51.434;6.756;2022-09-09T16:28:30;3.33;;;1.20;;
50803;SDS011;37205;51.434;6.756;2022-09-09T16:30:56;3.85;;;1.33;;
50803;SDS011;37205;51.434;6.756;2022-09-09T16:33:23;4.18;;;1.45;;
50803;SDS011;37205;51.434;6.756;2022-09-09T16:35:49;4.07;;;1.20;;
50803;SDS011;37205;51.434;6.756;2022-09-09T16:38:14;3.20;;;1.23;;
50803;SDS011;37205;51.434;6.756;2022-09-09T16:40:40;4.35;;;1.60;;
50803;SDS011;37205;51.434;6.756;2022-09-09T16:43:06;2.75;;;1.17;;
50803;SDS011;37205;51.434;6.756;2022-09-09T16:45:34;3.72;;;1.48;;
50803;SDS011;37205;51.434;6.756;2022-09-09T16:48:06;2.87;;;1.20;;
50803;SDS011;37205;51.434;6.756;2022-09-09T16:50:34;3.08;;;1.30;;
50803;SDS011;37205;51.434;6.756;2022-09-09T16:52:59;4.70;;;1.60;;
50803;SDS011;37205;51.434;6.756;2022-09-09T16:55:28;3.08;;;1.80;;
50803;SDS011;37205;51.434;6.756;2022-09-09T16:57:54;4.18;;;1.42;;
50803;SDS011;37205;51.434;6.756;2022-09-09T17:00:20;3.40;;;1.70;;
50803;SDS011;37205;51.434;6.756;2022-09-09T17:02:48;4.22;;;2.10;;
50803;SDS011;37205;51.434;6.756;2022-09-09T17:05:13;3.22;;;1.75;;
50803;SDS011;37205;51.434;6.756;2022-09-09T17:07:39;4.65;;;2.10;;
50803;SDS011;37205;51.434;6.756;2022-09-09T17:10:05;6.47;;;2.08;;
50803;SDS011;37205;51.434;6.756;2022-09-09T17:12:32;5.43;;;2.08;;
50803;SDS011;37205;51.434;6.756;2022-09-09T17:14:58;4.50;;;2.38;;
50803;SDS011;37205;51.434;6.756;2022-09-09T17:17:27;3.22;;;2.03;;